Time;durP1;ratioP1;P1;durP2;ratioP2;P2;SDS_P1;SDS_P2;PMS_P1;PMS_P2;Temp;Humidity;BMP_temperature;BMP_pressure;BME280_temperature;BME280_humidity;BME280_pressure;Samples;Min_cycle;Max_cycle;Signal;HPM_P1;HPM_P2
2021/04/14 00:01:32;;;;;;;5.00;2.25;;;;;;;;;;4956184;28;20077;-85
2021/04/14 00:03:58;;;;;;;4.95;2.30;;;;;;;;;;4956101;28;20379;-85
2021/04/14 00:06:24;;;;;;;2.80;2.20;;;;;;;;;;4956071;28;20527;-85
2021/04/14 00:08:50;;;;;;;4.43;2.40;;;;;;;;;;4955891;28;20047;-85
2021/04/14 00:11:18;;;;;;;6.82;2.40;;;;;;;;;;4956015;28;20046;-85
2021/04/14 00:13:44;;;;;;;5.85;2.78;;;;;;;;;;4972918;28;20038;-85
2021/04/14 00:16:12;;;;;;;3.45;1.92;;;;;;;;;;4955842;28;20471;-85
2021/04/14 00:18:38;;;;;;;6.25;2.10;;;;;;;;;;4959800;28;20096;-84
2021/04/14 00:21:04;;;;;;;3.63;2.15;;;;;;;;;;4959828;28;20088;-84
2021/04/14 00:23:30;;;;;;;3.38;2.45;;;;;;;;;;4959760;28;20043;-84
2021/04/14 00:25:56;;;;;;;3.03;2.10;;;;;;;;;;4927478;28;20043;-84
2021/04/14 00:28:23;;;;;;;4.50;2.63;;;;;;;;;;4976416;28;20055;-84
2021/04/14 00:30:49;;;;;;;4.68;2.25;;;;;;;;;;4959604;28;20043;-84
2021/04/14 00:33:17;;;;;;;6.80;2.42;;;;;;;;;;4943603;28;20125;-84
2021/04/14 00:35:43;;;;;;;5.35;2.42;;;;;;;;;;4943128;28;20047;-84
2021/04/14 00:38:09;;;;;;;4.60;2.70;;;;;;;;;;4959300;28;20050;-84
2021/04/14 00:40:36;;;;;;;5.68;2.80;;;;;;;;;;4943596;28;20039;-84
2021/04/14 00:43:03;;;;;;;4.38;2.40;;;;;;;;;;4943406;28;20043;-84
2021/04/14 00:45:29;;;;;;;5.30;2.38;;;;;;;;;;4959318;28;20049;-85
2021/04/14 00:47:55;;;;;;;4.90;2.00;;;;;;;;;;4943257;28;20560;-85
2021/04/14 00:50:22;;;;;;;5.65;2.53;;;;;;;;;;4959102;28;20081;-85
2021/04/14 00:52:48;;;;;;;4.55;2.78;;;;;;;;;;4943088;28;20054;-85
2021/04/14 00:55:16;;;;;;;5.10;2.10;;;;;;;;;;4959375;28;20093;-85
2021/04/14 00:57:42;;;;;;;3.92;2.50;;;;;;;;;;4942967;28;20085;-85
2021/04/14 01:00:08;;;;;;;4.20;2.63;;;;;;;;;;4959119;28;20406;-84
2021/04/14 01:02:34;;;;;;;4.32;2.60;;;;;;;;;;4943069;28;20121;-84
2021/04/14 01:05:00;;;;;;;4.43;2.78;;;;;;;;;;4942853;28;20038;-84
2021/04/14 01:07:27;;;;;;;5.93;2.63;;;;;;;;;;4942794;28;20047;-84
2021/04/14 01:09:53;;;;;;;5.00;2.55;;;;;;;;;;4942622;28;20042;-84
2021/04/14 01:12:20;;;;;;;6.18;2.95;;;;;;;;;;4943102;28;20086;-84
2021/04/14 01:14:46;;;;;;;6.32;2.83;;;;;;;;;;4958715;28;20491;-86
2021/04/14 01:17:12;;;;;;;8.68;3.60;;;;;;;;;;4958661;28;20042;-86
2021/04/14 01:19:38;;;;;;;5.68;3.33;;;;;;;;;;4942673;28;20042;-85
2021/04/14 01:22:04;;;;;;;5.55;3.00;;;;;;;;;;4958724;28;20050;-85
2021/04/14 01:24:30;;;;;;;7.45;3.60;;;;;;;;;;4958720;28;20122;-85
2021/04/14 01:26:56;;;;;;;7.43;2.92;;;;;;;;;;4975643;28;20038;-84
2021/04/14 01:29:22;;;;;;;4.40;2.67;;;;;;;;;;4956214;28;20083;-84
2021/04/14 01:31:49;;;;;;;6.18;3.00;;;;;;;;;;4974464;28;20058;-84
2021/04/14 01:34:15;;;;;;;9.38;3.15;;;;;;;;;;4974473;28;20437;-84
2021/04/14 01:36:41;;;;;;;7.18;2.85;;;;;;;;;;4958341;28;20086;-84
2021/04/14 01:39:09;;;;;;;5.60;2.60;;;;;;;;;;4974370;28;20039;-84
2021/04/14 01:41:35;;;;;;;5.10;3.08;;;;;;;;;;4974519;28;20062;-82
2021/04/14 01:44:02;;;;;;;6.05;3.08;;;;;;;;;;4974214;28;20082;-84
2021/04/14 01:46:29;;;;;;;7.53;3.15;;;;;;;;;;4958214;28;20041;-83
2021/04/14 01:48:55;;;;;;;4.60;3.17;;;;;;;;;;4975253;28;20065;-84
2021/04/14 01:51:21;;;;;;;7.60;3.20;;;;;;;;;;4958179;28;20043;-84
2021/04/14 01:53:47;;;;;;;8.02;3.30;;;;;;;;;;4957940;28;20420;-84
2021/04/14 01:56:13;;;;;;;6.47;3.40;;;;;;;;;;4957931;28;20125;-84
2021/04/14 01:58:40;;;;;;;7.93;3.33;;;;;;;;;;4958147;28;20128;-82
2021/04/14 02:01:07;;;;;;;7.80;3.58;;;;;;;;;;4958078;28;20054;-83
2021/04/14 02:03:34;;;;;;;9.80;3.90;;;;;;;;;;4973905;28;20035;-83
2021/04/14 02:06:00;;;;;;;9.68;3.65;;;;;;;;;;4973773;28;20034;-83
2021/04/14 02:08:26;;;;;;;6.53;3.20;;;;;;;;;;4957623;28;20054;-83
2021/04/14 02:10:53;;;;;;;8.15;4.05;;;;;;;;;;4974831;28;20086;-83
2021/04/14 02:13:21;;;;;;;5.90;3.22;;;;;;;;;;4973643;28;20050;-83
2021/04/14 02:15:47;;;;;;;8.82;3.80;;;;;;;;;;4974644;28;20379;-84
2021/04/14 02:18:33;;;;;;;7.72;3.75;;;;;;;;;;4947185;28;20105;-84
2021/04/14 02:21:00;;;;;;;9.60;3.72;;;;;;;;;;4974672;28;20125;-84
2021/04/14 02:23:28;;;;;;;9.73;3.60;;;;;;;;;;4974655;28;20475;-84
2021/04/14 02:26:10;;;;;;;4.70;3.35;;;;;;;;;;4973719;28;20035;-85
2021/04/14 02:28:36;;;;;;;8.98;3.35;;;;;;;;;;4957157;28;20069;-84
2021/04/14 02:31:02;;;;;;;7.93;3.40;;;;;;;;;;4973263;28;20035;-83
2021/04/14 02:33:28;;;;;;;7.25;3.75;;;;;;;;;;4957260;28;20166;-83
2021/04/14 02:35:55;;;;;;;7.18;3.50;;;;;;;;;;4974515;28;20042;-84
2021/04/14 02:38:23;;;;;;;6.63;3.78;;;;;;;;;;4941500;28;20070;-83
2021/04/14 02:40:59;;;;;;;6.03;4.18;;;;;;;;;;4959827;28;20039;-84
2021/04/14 02:43:45;;;;;;;8.52;4.40;;;;;;;;;;4960135;28;20141;-84
2021/04/14 02:46:11;;;;;;;5.72;3.47;;;;;;;;;;4957125;28;20062;-83
2021/04/14 02:48:38;;;;;;;8.38;3.33;;;;;;;;;;4973131;28;20049;-84
2021/04/14 02:51:24;;;;;;;7.00;3.97;;;;;;;;;;4973448;28;20109;-85
2021/04/14 02:53:50;;;;;;;8.13;3.70;;;;;;;;;;4974094;28;20050;-83
2021/04/14 02:56:16;;;;;;;7.28;3.78;;;;;;;;;;4972769;28;20113;-83
2021/04/14 02:58:42;;;;;;;8.05;3.60;;;;;;;;;;4956900;28;20047;-83
2021/04/14 03:01:08;;;;;;;6.90;3.22;;;;;;;;;;4956864;28;20105;-83
2021/04/14 03:03:34;;;;;;;8.05;3.67;;;;;;;;;;4972819;28;20038;-84
2021/04/14 03:06:04;;;;;;;8.05;3.47;;;;;;;;;;4941675;28;20050;-84
2021/04/14 03:08:30;;;;;;;11.20;3.67;;;;;;;;;;4956537;28;20050;-83
2021/04/14 03:10:56;;;;;;;5.55;2.97;;;;;;;;;;4972547;28;20038;-83
2021/04/14 03:13:27;;;;;;;5.15;3.20;;;;;;;;;;4972717;28;20097;-83
2021/04/14 03:15:53;;;;;;;11.60;4.05;;;;;;;;;;4972419;28;20049;-84
2021/04/14 03:18:39;;;;;;;6.32;3.90;;;;;;;;;;4959805;28;20051;-84
2021/04/14 03:21:05;;;;;;;4.57;3.30;;;;;;;;;;4972484;28;20117;-84
2021/04/14 03:23:31;;;;;;;9.02;3.72;;;;;;;;;;4956404;28;20105;-84
2021/04/14 03:25:58;;;;;;;8.07;3.72;;;;;;;;;;4956297;28;20047;-84
2021/04/14 03:28:24;;;;;;;8.25;3.83;;;;;;;;;;4955826;28;20121;-84
2021/04/14 03:30:50;;;;;;;7.57;4.00;;;;;;;;;;4956003;28;20113;-83
2021/04/14 03:33:16;;;;;;;5.78;4.00;;;;;;;;;;4972437;28;20043;-84
2021/04/14 03:35:42;;;;;;;9.65;3.88;;;;;;;;;;4956417;28;20035;-83
2021/04/14 03:38:09;;;;;;;9.57;3.70;;;;;;;;;;4972245;28;20107;-84
2021/04/14 03:40:55;;;;;;;8.13;4.05;;;;;;;;;;4972682;28;20082;-83
2021/04/14 03:43:21;;;;;;;5.85;3.78;;;;;;;;;;4972332;28;20043;-83
2021/04/14 03:45:49;;;;;;;6.63;3.85;;;;;;;;;;4972216;28;20065;-83
2021/04/14 03:48:15;;;;;;;6.80;3.63;;;;;;;;;;4956321;28;20130;-84
2021/04/14 03:50:41;;;;;;;10.60;3.90;;;;;;;;;;4956281;28;20043;-82
2021/04/14 03:53:08;;;;;;;8.38;3.97;;;;;;;;;;4975437;28;20039;-83
2021/04/14 03:55:34;;;;;;;7.00;3.63;;;;;;;;;;4977329;28;20117;-83
2021/04/14 03:58:00;;;;;;;8.57;4.13;;;;;;;;;;4976093;28;20034;-84
2021/04/14 04:00:27;;;;;;;7.65;4.05;;;;;;;;;;4977249;28;20121;-84
2021/04/14 04:02:53;;;;;;;9.88;4.18;;;;;;;;;;4976120;28;20186;-84
2021/04/14 04:05:19;;;;;;;6.90;3.75;;;;;;;;;;4975982;28;20046;-84
2021/04/14 04:08:05;;;;;;;6.30;3.67;;;;;;;;;;4962942;28;20137;-84
2021/04/14 04:10:31;;;;;;;8.20;3.80;;;;;;;;;;4975883;28;20371;-84
2021/04/14 04:12:58;;;;;;;7.30;3.95;;;;;;;;;;4975745;28;20047;-84
2021/04/14 04:15:25;;;;;;;6.88;4.00;;;;;;;;;;4975693;28;20514;-84
2021/04/14 04:17:52;;;;;;;6.50;4.20;;;;;;;;;;4959546;28;20047;-83
2021/04/14 04:20:38;;;;;;;8.00;3.17;;;;;;;;;;4976050;28;20050;-83
2021/04/14 04:23:04;;;;;;;6.47;3.95;;;;;;;;;;4943639;28;20051;-83
2021/04/14 04:25:31;;;;;;;6.80;3.88;;;;;;;;;;4975599;28;20047;-83
2021/04/14 04:27:57;;;;;;;8.90;3.90;;;;;;;;;;4959145;28;20567;-83
2021/04/14 04:30:23;;;;;;;6.65;3.72;;;;;;;;;;4959457;28;20043;-83
2021/04/14 04:32:49;;;;;;;7.93;4.03;;;;;;;;;;4975684;28;20372;-83
2021/04/14 04:35:15;;;;;;;8.00;3.97;;;;;;;;;;4975701;28;20042;-83
2021/04/14 04:37:41;;;;;;;9.43;4.00;;;;;;;;;;4975538;28;20037;-83
2021/04/14 04:40:08;;;;;;;8.30;4.13;;;;;;;;;;4976563;28;20125;-82
2021/04/14 04:42:54;;;;;;;8.50;3.78;;;;;;;;;;4949206;28;20134;-83
2021/04/14 04:45:21;;;;;;;5.63;3.83;;;;;;;;;;4975293;28;20100;-84
2021/04/14 04:47:47;;;;;;;7.15;4.07;;;;;;;;;;4975177;28;20122;-85
2021/04/14 04:50:13;;;;;;;5.43;3.47;;;;;;;;;;4959237;28;20486;-84
2021/04/14 04:52:40;;;;;;;7.93;4.13;;;;;;;;;;4975227;28;20046;-84
2021/04/14 04:55:07;;;;;;;8.52;3.97;;;;;;;;;;4959243;28;20054;-85
2021/04/14 04:57:34;;;;;;;6.25;3.40;;;;;;;;;;4943278;28;20043;-83
2021/04/14 05:00:00;;;;;;;10.35;5.78;;;;;;;;;;4943005;28;20086;-84
2021/04/14 05:02:26;;;;;;;5.65;4.05;;;;;;;;;;4975006;28;20078;-84
2021/04/14 05:05:13;;;;;;;6.00;3.35;;;;;;;;;;4974826;28;20051;-83
2021/04/14 05:07:39;;;;;;;8.95;4.50;;;;;;;;;;4958782;28;20412;-83
2021/04/14 05:10:06;;;;;;;10.32;4.10;;;;;;;;;;4958788;28;20042;-84
2021/04/14 05:12:52;;;;;;;7.25;4.00;;;;;;;;;;4948590;28;20133;-84
2021/04/14 05:15:20;;;;;;;9.65;3.45;;;;;;;;;;4974889;28;20494;-83
2021/04/14 05:17:47;;;;;;;7.72;3.80;;;;;;;;;;4974762;28;20047;-83
2021/04/14 05:20:13;;;;;;;7.68;3.53;;;;;;;;;;4974645;28;20043;-83
2021/04/14 05:22:39;;;;;;;8.52;3.75;;;;;;;;;;4958688;28;20387;-83
2021/04/14 05:25:06;;;;;;;7.30;3.47;;;;;;;;;;4975756;28;20038;-83
2021/04/14 05:27:33;;;;;;;5.95;3.60;;;;;;;;;;4974301;28;20513;-84
2021/04/14 05:29:59;;;;;;;8.02;4.30;;;;;;;;;;4958533;28;20443;-83
2021/04/14 05:32:25;;;;;;;7.10;4.22;;;;;;;;;;4958357;28;20038;-83
2021/04/14 05:34:53;;;;;;;6.13;3.90;;;;;;;;;;4942900;28;20039;-83
2021/04/14 05:37:19;;;;;;;6.43;4.15;;;;;;;;;;4958434;28;20066;-82
2021/04/14 05:39:45;;;;;;;7.20;4.10;;;;;;;;;;4958479;28;20149;-86
2021/04/14 05:42:11;;;;;;;7.03;4.18;;;;;;;;;;4942569;28;20046;-83
2021/04/14 05:44:37;;;;;;;8.40;4.45;;;;;;;;;;4942195;28;20039;-83
2021/04/14 05:47:05;;;;;;;7.72;4.53;;;;;;;;;;4975166;28;20038;-83
2021/04/14 05:49:51;;;;;;;8.93;4.35;;;;;;;;;;4960908;28;20050;-82
2021/04/14 05:52:17;;;;;;;5.72;3.90;;;;;;;;;;4942103;28;20178;-82
2021/04/14 05:54:43;;;;;;;5.72;3.90;;;;;;;;;;4941997;28;20043;-85
2021/04/14 05:57:29;;;;;;;6.00;3.70;;;;;;;;;;4947289;28;20482;-85
2021/04/14 05:59:55;;;;;;;7.65;4.05;;;;;;;;;;4941994;28;20483;-85
2021/04/14 06:02:21;;;;;;;6.10;3.28;;;;;;;;;;4957957;28;20039;-85
2021/04/14 06:04:47;;;;;;;7.03;3.88;;;;;;;;;;4942144;28;20093;-89
2021/04/14 06:07:13;;;;;;;5.00;3.30;;;;;;;;;;4942173;28;20054;-89
2021/04/14 06:09:40;;;;;;;4.68;3.13;;;;;;;;;;4957743;28;20043;-86
2021/04/14 06:12:06;;;;;;;3.67;2.97;;;;;;;;;;4925889;28;20078;-84
2021/04/14 06:14:32;;;;;;;4.22;2.90;;;;;;;;;;4941488;28;20035;-85
2021/04/14 06:16:58;;;;;;;5.00;3.30;;;;;;;;;;4957565;28;20045;-85
2021/04/14 06:19:26;;;;;;;4.15;2.60;;;;;;;;;;4957775;28;20050;-83
2021/04/14 06:21:52;;;;;;;6.75;3.00;;;;;;;;;;4974690;28;20448;-87
2021/04/14 06:24:18;;;;;;;3.90;2.58;;;;;;;;;;4941722;28;20138;-86
2021/04/14 06:26:52;;;;;;;4.85;2.70;;;;;;;;;;4941450;28;20050;-86
2021/04/14 06:29:18;;;;;;;5.97;2.60;;;;;;;;;;4956023;28;20061;-86
2021/04/14 06:31:44;;;;;;;3.85;2.50;;;;;;;;;;4971683;28;20039;-85
2021/04/14 06:34:14;;;;;;;3.42;2.38;;;;;;;;;;4973326;28;20127;-86
2021/04/14 06:36:41;;;;;;;3.20;2.35;;;;;;;;;;4957776;28;20049;-87
2021/04/14 06:39:35;;;;;;;3.72;2.38;;;;;;;;;;4946932;28;20051;-86
2021/04/14 06:44:32;;;;;;;19.20;2.88;;;;;;;;;;4953724;29;20035;-83
2021/04/14 06:46:58;;;;;;;62.80;6.22;;;;;;;;;;4953696;29;20035;-84
2021/04/14 06:49:27;;;;;;;71.72;5.93;;;;;;;;;;4953558;28;20109;-84
2021/04/14 06:52:02;;;;;;;48.50;5.35;;;;;;;;;;4953693;29;20047;-84
2021/04/14 06:54:28;;;;;;;99.05;8.27;;;;;;;;;;4966255;28;20038;-84
2021/04/14 06:57:02;;;;;;;57.78;5.72;;;;;;;;;;4960447;28;20035;-84
2021/04/14 07:00:04;;;;;;;29.00;3.67;;;;;;;;;;4953839;29;20047;-83
2021/04/14 07:02:31;;;;;;;10.67;2.17;;;;;;;;;;4953472;29;20054;-84
2021/04/14 07:05:03;;;;;;;3.75;1.75;;;;;;;;;;4954567;29;20089;-84
2021/04/14 07:07:50;;;;;;;4.05;1.90;;;;;;;;;;4953997;29;20051;-83
2021/04/14 07:10:22;;;;;;;4.85;1.80;;;;;;;;;;4953065;29;20554;-83
2021/04/14 07:12:50;;;;;;;1.98;1.40;;;;;;;;;;4953501;29;20047;-82
2021/04/14 07:15:17;;;;;;;2.85;1.70;;;;;;;;;;4969192;28;20039;-82
2021/04/14 07:17:47;;;;;;;2.70;1.40;;;;;;;;;;4964371;28;20538;-83
2021/04/14 07:20:54;;;;;;;4.53;1.58;;;;;;;;;;4972844;28;20533;-83
2021/04/14 07:23:24;;;;;;;2.67;1.40;;;;;;;;;;4973697;28;20050;-83
2021/04/14 07:26:03;;;;;;;2.80;1.30;;;;;;;;;;4956206;28;20657;-83
2021/04/14 07:28:42;;;;;;;1.75;1.25;;;;;;;;;;4955841;28;20077;-83
2021/04/14 07:31:12;;;;;;;4.65;1.40;;;;;;;;;;4973433;28;20475;-83
2021/04/14 07:33:41;;;;;;;2.38;1.30;;;;;;;;;;4972332;28;20065;-82
2021/04/14 07:36:11;;;;;;;1.98;1.00;;;;;;;;;;4973315;28;20088;-83
2021/04/14 07:38:56;;;;;;;3.28;1.33;;;;;;;;;;4973419;28;20038;-82
2021/04/14 07:41:30;;;;;;;3.13;1.30;;;;;;;;;;4973547;28;20047;-83
2021/04/14 07:43:57;;;;;;;3.45;1.00;;;;;;;;;;4973416;28;20438;-84
2021/04/14 07:46:24;;;;;;;2.10;1.23;;;;;;;;;;4973054;28;20530;-83
2021/04/14 07:48:51;;;;;;;8.43;1.33;;;;;;;;;;4972213;28;20043;-85
2021/04/14 07:51:18;;;;;;;6.20;1.55;;;;;;;;;;4970729;28;20070;-85
2021/04/14 07:53:54;;;;;;;5.88;1.25;;;;;;;;;;4967266;28;20039;-85
2021/04/14 07:56:21;;;;;;;4.78;1.05;;;;;;;;;;4971620;28;20047;-86
2021/04/14 07:58:48;;;;;;;3.72;0.80;;;;;;;;;;4973181;28;20066;-83
2021/04/14 08:01:14;;;;;;;3.78;0.80;;;;;;;;;;4971750;28;20039;-84
2021/04/14 08:03:40;;;;;;;3.42;1.10;;;;;;;;;;4973129;28;20078;-83
2021/04/14 08:06:07;;;;;;;6.57;1.05;;;;;;;;;;4971891;28;20038;-84
2021/04/14 08:08:33;;;;;;;2.15;0.73;;;;;;;;;;4971730;28;20054;-84
2021/04/14 08:11:06;;;;;;;3.40;0.93;;;;;;;;;;4956058;28;20047;-84
2021/04/14 08:13:36;;;;;;;5.57;1.20;;;;;;;;;;4973107;28;20046;-83
2021/04/14 08:16:09;;;;;;;3.33;0.70;;;;;;;;;;4956327;28;20039;-84
2021/04/14 08:18:37;;;;;;;4.03;1.00;;;;;;;;;;4971960;28;20039;-84
2021/04/14 08:21:15;;;;;;;4.45;1.10;;;;;;;;;;4955978;28;20035;-84
2021/04/14 08:23:57;;;;;;;5.60;1.00;;;;;;;;;;4956285;28;20047;-84
2021/04/14 08:26:23;;;;;;;4.35;0.90;;;;;;;;;;4971944;28;20397;-83
2021/04/14 08:28:50;;;;;;;3.30;1.08;;;;;;;;;;4971554;28;20517;-83
2021/04/14 08:31:45;;;;;;;5.63;1.00;;;;;;;;;;4971719;28;20031;-83
2021/04/14 08:34:23;;;;;;;3.78;0.70;;;;;;;;;;4957860;28;20046;-83
2021/04/14 08:36:54;;;;;;;3.97;1.00;;;;;;;;;;4972843;28;20039;-83
2021/04/14 08:39:40;;;;;;;1.67;0.82;;;;;;;;;;4974953;28;20390;-84
2021/04/14 08:42:06;;;;;;;3.30;1.23;;;;;;;;;;4975076;28;20054;-84
2021/04/14 08:44:34;;;;;;;5.07;1.13;;;;;;;;;;4976574;28;20038;-84
2021/04/14 08:47:11;;;;;;;4.10;1.05;;;;;;;;;;4976294;28;20043;-84
2021/04/14 08:49:37;;;;;;;3.33;0.93;;;;;;;;;;4975257;28;20122;-83
2021/04/14 08:52:03;;;;;;;4.53;0.88;;;;;;;;;;4975092;28;20061;-82
2021/04/14 08:54:33;;;;;;;3.47;1.10;;;;;;;;;;4976099;28;20034;-82
2021/04/14 08:57:00;;;;;;;6.00;1.13;;;;;;;;;;4974929;28;20038;-83
2021/04/14 08:59:26;;;;;;;4.25;1.00;;;;;;;;;;4975169;28;20081;-83
2021/04/14 09:01:52;;;;;;;4.93;0.90;;;;;;;;;;4975024;28;20094;-83
2021/04/14 09:04:18;;;;;;;3.55;1.00;;;;;;;;;;4975029;28;20103;-83
2021/04/14 09:06:45;;;;;;;6.90;1.08;;;;;;;;;;4974879;28;20066;-83
2021/04/14 09:09:15;;;;;;;2.88;0.80;;;;;;;;;;4974709;28;20046;-83
2021/04/14 09:11:43;;;;;;;5.20;1.00;;;;;;;;;;4975935;28;20039;-84
2021/04/14 09:14:23;;;;;;;3.42;0.80;;;;;;;;;;4974868;28;20260;-83
2021/04/14 09:16:50;;;;;;;3.03;0.90;;;;;;;;;;4974795;28;20487;-83
2021/04/14 09:19:27;;;;;;;5.95;0.90;;;;;;;;;;4975926;28;20038;-83
2021/04/14 09:22:26;;;;;;;4.80;0.90;;;;;;;;;;4974863;28;20046;-83
2021/04/14 09:24:53;;;;;;;2.03;0.82;;;;;;;;;;4953739;28;20561;-83
2021/04/14 09:27:21;;;;;;;2.72;0.65;;;;;;;;;;4974448;28;20066;-83
2021/04/14 09:29:50;;;;;;;3.95;0.90;;;;;;;;;;4974188;28;20579;-83
2021/04/14 09:32:16;;;;;;;1.73;0.55;;;;;;;;;;4975548;28;20057;-83
2021/04/14 09:34:52;;;;;;;4.18;0.80;;;;;;;;;;4974666;28;20031;-84
2021/04/14 09:37:20;;;;;;;2.95;0.80;;;;;;;;;;4974259;28;20047;-83
2021/04/14 09:39:49;;;;;;;1.60;0.60;;;;;;;;;;4975487;28;20071;-84
2021/04/14 09:42:19;;;;;;;5.13;0.77;;;;;;;;;;4975471;28;20039;-86
2021/04/14 09:44:47;;;;;;;1.63;0.70;;;;;;;;;;4958412;28;20466;-88
2021/04/14 09:47:18;;;;;;;3.40;0.40;;;;;;;;;;4958281;28;20039;-88
2021/04/14 09:49:45;;;;;;;2.58;0.70;;;;;;;;;;4974270;28;20046;-89
2021/04/14 09:52:30;;;;;;;3.25;0.60;;;;;;;;;;4972416;28;20061;-90
2021/04/14 09:55:16;;;;;;;1.60;0.70;;;;;;;;;;4958407;28;20126;-89
2021/04/14 09:57:43;;;;;;;1.70;0.70;;;;;;;;;;4958377;28;20482;-91
2021/04/14 10:00:18;;;;;;;2.28;0.70;;;;;;;;;;4946758;29;20067;-90
2021/04/14 10:02:46;;;;;;;1.80;0.63;;;;;;;;;;4955182;29;20427;-90
2021/04/14 10:05:12;;;;;;;2.58;0.70;;;;;;;;;;4939398;29;20070;-88
2021/04/14 10:07:39;;;;;;;3.85;0.80;;;;;;;;;;4955025;29;20042;-90
2021/04/14 10:10:06;;;;;;;2.72;0.73;;;;;;;;;;4939053;29;20126;-90
2021/04/14 10:12:33;;;;;;;3.28;0.80;;;;;;;;;;4938941;29;20035;-90
2021/04/14 10:14:59;;;;;;;2.88;0.75;;;;;;;;;;4938999;29;20063;-89
2021/04/14 10:17:26;;;;;;;3.35;0.93;;;;;;;;;;4923196;29;20043;-90
2021/04/14 10:19:53;;;;;;;2.35;0.63;;;;;;;;;;4955176;29;20114;-90
2021/04/14 10:22:22;;;;;;;3.78;0.70;;;;;;;;;;4938729;29;20102;-88
2021/04/14 10:24:49;;;;;;;2.47;0.80;;;;;;;;;;4954233;29;20031;-86
2021/04/14 10:27:19;;;;;;;3.60;0.80;;;;;;;;;;4954158;28;20406;-87
2021/04/14 10:29:45;;;;;;;3.78;1.00;;;;;;;;;;4953903;28;20051;-87
2021/04/14 10:32:15;;;;;;;2.80;0.70;;;;;;;;;;4938144;29;20054;-87
2021/04/14 10:34:42;;;;;;;4.88;0.77;;;;;;;;;;4938119;29;20046;-87
2021/04/14 10:37:12;;;;;;;2.45;0.75;;;;;;;;;;4938083;29;20135;-88
2021/04/14 10:39:38;;;;;;;3.00;0.73;;;;;;;;;;4954012;29;20039;-88
2021/04/14 10:42:14;;;;;;;3.55;0.60;;;;;;;;;;4938193;29;20157;-86
2021/04/14 10:44:40;;;;;;;2.35;0.80;;;;;;;;;;4939831;29;20049;-88
2021/04/14 10:47:14;;;;;;;3.10;0.80;;;;;;;;;;4954391;29;20491;-87
2021/04/14 10:49:40;;;;;;;3.17;0.80;;;;;;;;;;4953664;29;20122;-87
2021/04/14 10:52:10;;;;;;;3.70;0.70;;;;;;;;;;4954879;29;20075;-87
2021/04/14 10:54:39;;;;;;;5.22;0.73;;;;;;;;;;4967848;28;20046;-86
2021/04/14 10:57:06;;;;;;;2.05;0.60;;;;;;;;;;4972829;28;20047;-85
2021/04/14 10:59:32;;;;;;;2.40;0.80;;;;;;;;;;4956740;28;20569;-86
2021/04/14 11:01:58;;;;;;;2.65;0.65;;;;;;;;;;4972097;28;20066;-86
2021/04/14 11:04:32;;;;;;;2.70;0.50;;;;;;;;;;4956744;28;20070;-86
2021/04/14 11:07:03;;;;;;;2.35;0.80;;;;;;;;;;4972759;28;20062;-85
2021/04/14 11:09:32;;;;;;;2.90;0.80;;;;;;;;;;4972735;28;20152;-85
2021/04/14 11:11:59;;;;;;;2.90;0.80;;;;;;;;;;4956696;28;20042;-85
2021/04/14 11:14:25;;;;;;;3.80;0.73;;;;;;;;;;4956639;28;20121;-85
2021/04/14 11:16:51;;;;;;;2.47;1.10;;;;;;;;;;4972420;28;20244;-86
2021/04/14 11:19:18;;;;;;;3.08;0.80;;;;;;;;;;4972551;28;20034;-86
2021/04/14 11:21:44;;;;;;;2.50;0.65;;;;;;;;;;4972325;28;20165;-85
2021/04/14 11:24:10;;;;;;;2.88;0.98;;;;;;;;;;4972410;28;20475;-86
2021/04/14 11:26:47;;;;;;;2.42;0.60;;;;;;;;;;4973376;28;20039;-85
2021/04/14 11:29:24;;;;;;;5.30;1.00;;;;;;;;;;4956245;28;20387;-85
2021/04/14 11:31:51;;;;;;;3.75;0.90;;;;;;;;;;4972344;28;20493;-84
2021/04/14 11:34:20;;;;;;;2.45;1.00;;;;;;;;;;4948960;28;20138;-84
2021/04/14 11:37:13;;;;;;;1.90;0.63;;;;;;;;;;4952931;28;20110;-85
2021/04/14 11:39:52;;;;;;;1.58;1.00;;;;;;;;;;4952959;28;20059;-86
2021/04/14 11:42:19;;;;;;;3.67;0.63;;;;;;;;;;4968883;28;20039;-86
2021/04/14 11:44:55;;;;;;;2.17;0.63;;;;;;;;;;4952964;29;20376;-85
2021/04/14 11:47:22;;;;;;;2.97;0.70;;;;;;;;;;4968568;28;20054;-84
2021/04/14 11:49:48;;;;;;;2.72;0.63;;;;;;;;;;4968690;28;20039;-84
2021/04/14 11:52:22;;;;;;;1.20;0.50;;;;;;;;;;4972016;28;20039;-84
2021/04/14 11:54:48;;;;;;;2.38;0.50;;;;;;;;;;4953704;28;20039;-85
2021/04/14 11:57:20;;;;;;;1.83;0.60;;;;;;;;;;4952657;29;20043;-84
2021/04/14 11:59:46;;;;;;;3.58;0.60;;;;;;;;;;4952736;29;20043;-83
2021/04/14 12:02:12;;;;;;;1.38;0.50;;;;;;;;;;4952000;28;20572;-83
2021/04/14 12:04:39;;;;;;;2.95;0.75;;;;;;;;;;4953846;29;20066;-84
2021/04/14 12:07:05;;;;;;;1.38;0.60;;;;;;;;;;4968574;28;20039;-84
2021/04/14 12:09:31;;;;;;;2.88;0.90;;;;;;;;;;4968744;28;20047;-85
2021/04/14 12:12:01;;;;;;;1.60;0.57;;;;;;;;;;4951443;28;20039;-84
2021/04/14 12:14:27;;;;;;;2.63;0.85;;;;;;;;;;4972140;28;20479;-85
2021/04/14 12:16:53;;;;;;;2.75;0.60;;;;;;;;;;4971320;28;20039;-84
2021/04/14 12:19:19;;;;;;;1.65;0.45;;;;;;;;;;4956396;28;20047;-84
2021/04/14 12:21:45;;;;;;;3.05;0.77;;;;;;;;;;4978592;28;20039;-84
2021/04/14 12:24:11;;;;;;;3.00;0.43;;;;;;;;;;4971902;28;20061;-84
2021/04/14 12:26:37;;;;;;;2.03;0.47;;;;;;;;;;4975965;28;20035;-84
2021/04/14 12:29:03;;;;;;;1.48;0.50;;;;;;;;;;4959965;28;20057;-83
2021/04/14 12:31:31;;;;;;;2.60;0.55;;;;;;;;;;4940521;29;20208;-84
2021/04/14 12:33:58;;;;;;;4.90;0.60;;;;;;;;;;4956197;29;20114;-85
2021/04/14 12:36:24;;;;;;;0.90;0.40;;;;;;;;;;4940069;29;20248;-85
2021/04/14 12:38:50;;;;;;;2.53;0.70;;;;;;;;;;4940121;29;20071;-86
2021/04/14 12:41:16;;;;;;;1.98;0.63;;;;;;;;;;4954969;28;20416;-86
2021/04/14 12:43:42;;;;;;;1.42;0.65;;;;;;;;;;4939977;29;20110;-86
2021/04/14 12:46:08;;;;;;;3.40;0.82;;;;;;;;;;4939986;29;20041;-86
2021/04/14 12:48:37;;;;;;;2.97;0.88;;;;;;;;;;4956096;29;20067;-85
2021/04/14 12:51:04;;;;;;;1.25;0.52;;;;;;;;;;4956038;29;20118;-86
2021/04/14 12:53:31;;;;;;;3.13;0.60;;;;;;;;;;4956925;29;20093;-86
2021/04/14 12:55:59;;;;;;;3.58;0.90;;;;;;;;;;4939654;29;20091;-86
2021/04/14 12:58:28;;;;;;;3.25;1.13;;;;;;;;;;4939554;28;20541;-84
2021/04/14 13:00:54;;;;;;;1.45;0.63;;;;;;;;;;4939800;29;20125;-86
2021/04/14 13:03:27;;;;;;;2.35;0.60;;;;;;;;;;4939774;29;20063;-86
2021/04/14 13:05:53;;;;;;;;;;;;;;;;;;4955986;29;20043;-86
2021/04/14 13:08:22;;;;;;;4.05;0.80;;;;;;;;;;4939578;29;20013;-86
2021/04/14 13:11:05;;;;;;;4.28;1.10;;;;;;;;;;4955436;29;20048;-86
2021/04/14 13:13:31;;;;;;;2.88;0.50;;;;;;;;;;4955727;29;20197;-86
2021/04/14 13:16:01;;;;;;;1.35;0.52;;;;;;;;;;4939494;29;20419;-85
2021/04/14 13:18:27;;;;;;;4.50;0.60;;;;;;;;;;4939578;29;20043;-85
2021/04/14 13:20:53;;;;;;;1.85;0.60;;;;;;;;;;4939403;29;20171;-86
2021/04/14 13:23:21;;;;;;;2.20;0.70;;;;;;;;;;4939263;29;20067;-86
2021/04/14 13:25:47;;;;;;;2.42;0.63;;;;;;;;;;4922428;29;20051;-86
2021/04/14 13:28:26;;;;;;;7.07;0.85;;;;;;;;;;4940508;29;20479;-84
2021/04/14 13:30:55;;;;;;;0.57;0.50;;;;;;;;;;4970999;28;20059;-84
2021/04/14 13:33:41;;;;;;;1.70;0.60;;;;;;;;;;4970873;28;20047;-84
2021/04/14 13:36:26;;;;;;;4.18;0.70;;;;;;;;;;4956004;29;20046;-84
2021/04/14 13:38:54;;;;;;;3.22;0.80;;;;;;;;;;4970793;28;20498;-84
2021/04/14 13:41:21;;;;;;;0.98;0.73;;;;;;;;;;4954589;29;20046;-85
2021/04/14 13:43:51;;;;;;;1.52;0.52;;;;;;;;;;4970786;28;20479;-86
2021/04/14 13:46:18;;;;;;;2.80;0.50;;;;;;;;;;4970350;28;20035;-86
2021/04/14 13:49:00;;;;;;;4.32;0.65;;;;;;;;;;4954531;29;20126;-85
2021/04/14 13:51:31;;;;;;;3.20;0.77;;;;;;;;;;4955674;29;20102;-86
2021/04/14 13:53:57;;;;;;;1.70;0.43;;;;;;;;;;4970458;28;20050;-85
2021/04/14 13:56:28;;;;;;;1.65;0.50;;;;;;;;;;4970430;28;20039;-83
2021/04/14 13:59:00;;;;;;;3.15;0.75;;;;;;;;;;4970399;28;20039;-83
2021/04/14 14:01:27;;;;;;;3.40;1.17;;;;;;;;;;4954315;29;20043;-83
2021/04/14 14:03:53;;;;;;;1.80;0.70;;;;;;;;;;4955583;29;20039;-83
2021/04/14 14:06:32;;;;;;;3.22;0.50;;;;;;;;;;4970144;28;20040;-84
2021/04/14 14:08:58;;;;;;;3.90;0.52;;;;;;;;;;4970040;28;20197;-83
2021/04/14 14:11:25;;;;;;;2.28;0.80;;;;;;;;;;4970147;28;20118;-84
2021/04/14 14:13:55;;;;;;;2.17;0.73;;;;;;;;;;4954148;29;20047;-84
2021/04/14 14:16:22;;;;;;;1.50;0.70;;;;;;;;;;4968042;28;20106;-83
2021/04/14 14:18:52;;;;;;;2.10;0.60;;;;;;;;;;4973000;28;20038;-84
2021/04/14 14:21:18;;;;;;;0.80;0.45;;;;;;;;;;4974420;28;20045;-85
2021/04/14 14:23:44;;;;;;;3.10;0.75;;;;;;;;;;4973052;28;20038;-85
2021/04/14 14:26:11;;;;;;;3.03;0.60;;;;;;;;;;4973164;28;20042;-86
2021/04/14 14:28:37;;;;;;;3.15;0.80;;;;;;;;;;4972886;28;20051;-84
2021/04/14 14:31:04;;;;;;;1.20;0.50;;;;;;;;;;4974219;28;20034;-84
2021/04/14 14:33:33;;;;;;;1.63;0.68;;;;;;;;;;4972882;28;20505;-85
2021/04/14 14:36:02;;;;;;;1.38;0.50;;;;;;;;;;4972872;28;20045;-85
2021/04/14 14:38:29;;;;;;;1.65;0.60;;;;;;;;;;4972877;28;20057;-84
2021/04/14 14:40:56;;;;;;;2.22;0.65;;;;;;;;;;4956856;28;20039;-84
2021/04/14 14:43:24;;;;;;;4.05;1.17;;;;;;;;;;4956862;28;20034;-83
2021/04/14 14:45:59;;;;;;;3.25;0.65;;;;;;;;;;4956654;28;20173;-84
2021/04/14 14:48:26;;;;;;;2.42;0.70;;;;;;;;;;4937875;29;20109;-84
2021/04/14 14:50:53;;;;;;;2.40;0.68;;;;;;;;;;4953220;29;20045;-85
2021/04/14 14:53:20;;;;;;;2.03;0.63;;;;;;;;;;4937869;29;20125;-85
2021/04/14 14:55:46;;;;;;;2.53;0.73;;;;;;;;;;4953312;28;20475;-85
2021/04/14 14:58:19;;;;;;;1.13;0.55;;;;;;;;;;4937448;29;20044;-84